sensor_id;sensor_type;location;lat;lon;timestamp;pressure;altitude;pressure_sealevel;temperature;humidity
66524;BME280;53350;52.210;5.160;2022-11-20T00:01:08;101474.63;;;1.71;62.94
66524;BME280;53350;52.210;5.160;2022-11-20T00:03:35;101468.63;;;1.69;62.70
66524;BME280;53350;52.210;5.160;2022-11-20T00:06:02;101468.53;;;1.66;63.20
66524;BME280;53350;52.210;5.160;2022-11-20T00:08:30;101471.00;;;1.64;63.28
66524;BME280;53350;52.210;5.160;2022-11-20T00:10:56;101481.97;;;1.63;62.82
66524;BME280;53350;52.210;5.160;2022-11-20T00:13:22;101483.59;;;1.61;63.36
66524;BME280;53350;52.210;5.160;2022-11-20T00:15:57;101473.34;;;1.58;63.25
66524;BME280;53350;52.210;5.160;2022-11-20T00:18:23;101469.91;;;1.58;62.76
66524;BME280;53350;52.210;5.160;2022-11-20T00:20:50;101463.13;;;1.56;62.89
66524;BME280;53350;52.210;5.160;2022-11-20T00:23:16;101462.16;;;1.53;63.15
66524;BME280;53350;52.210;5.160;2022-11-20T00:25:44;101458.66;;;1.49;63.34
66524;BME280;53350;52.210;5.160;2022-11-20T00:28:11;101462.81;;;1.47;63.01
66524;BME280;53350;52.210;5.160;2022-11-20T00:30:37;101461.00;;;1.45;63.39
66524;BME280;53350;52.210;5.160;2022-11-20T00:33:04;101456.78;;;1.44;63.26
66524;BME280;53350;52.210;5.160;2022-11-20T00:35:30;101452.50;;;1.43;62.82
66524;BME280;53350;52.210;5.160;2022-11-20T00:37:57;101453.19;;;1.38;62.77
66524;BME280;53350;52.210;5.160;2022-11-20T00:40:23;101463.25;;;1.35;63.23
66524;BME280;53350;52.210;5.160;2022-11-20T00:42:51;101462.28;;;1.32;63.52
66524;BME280;53350;52.210;5.160;2022-11-20T00:45:17;101457.25;;;1.33;63.40
66524;BME280;53350;52.210;5.160;2022-11-20T00:47:44;101455.63;;;1.35;63.08
66524;BME280;53350;52.210;5.160;2022-11-20T00:50:11;101446.28;;;1.34;63.38
66524;BME280;53350;52.210;5.160;2022-11-20T00:52:37;101447.81;;;1.29;63.13
66524;BME280;53350;52.210;5.160;2022-11-20T00:55:04;101454.31;;;1.23;63.62
66524;BME280;53350;52.210;5.160;2022-11-20T00:57:31;101449.78;;;1.14;63.38
66524;BME280;53350;52.210;5.160;2022-11-20T00:59:59;101453.75;;;1.07;63.96
66524;BME280;53350;52.210;5.160;2022-11-20T01:02:25;101447.84;;;1.07;64.27
66524;BME280;53350;52.210;5.160;2022-11-20T01:04:52;101449.56;;;1.08;63.87
66524;BME280;53350;52.210;5.160;2022-11-20T01:07:18;101452.16;;;1.09;63.68
66524;BME280;53350;52.210;5.160;2022-11-20T01:09:44;101447.25;;;1.14;64.38
66524;BME280;53350;52.210;5.160;2022-11-20T01:12:11;101457.56;;;1.18;64.45
66524;BME280;53350;52.210;5.160;2022-11-20T01:14:37;101454.28;;;1.21;63.98
66524;BME280;53350;52.210;5.160;2022-11-20T01:17:05;101444.13;;;1.21;64.20
66524;BME280;53350;52.210;5.160;2022-11-20T01:19:32;101448.41;;;1.22;63.69
66524;BME280;53350;52.210;5.160;2022-11-20T01:21:58;101449.25;;;1.23;63.86
66524;BME280;53350;52.210;5.160;2022-11-20T01:24:25;101444.91;;;1.20;63.83
66524;BME280;53350;52.210;5.160;2022-11-20T01:26:51;101441.47;;;1.18;63.66
66524;BME280;53350;52.210;5.160;2022-11-20T01:29:20;101449.09;;;1.18;63.95
66524;BME280;53350;52.210;5.160;2022-11-20T01:31:46;101439.78;;;1.18;63.53
66524;BME280;53350;52.210;5.160;2022-11-20T01:34:16;101433.06;;;1.19;63.89
66524;BME280;53350;52.210;5.160;2022-11-20T01:36:43;101432.28;;;1.21;63.69
66524;BME280;53350;52.210;5.160;2022-11-20T01:39:12;101437.34;;;1.21;63.67
66524;BME280;53350;52.210;5.160;2022-11-20T01:41:39;101430.69;;;1.24;64.32
66524;BME280;53350;52.210;5.160;2022-11-20T01:44:21;101424.72;;;1.23;64.06
66524;BME280;53350;52.210;5.160;2022-11-20T01:46:54;101428.09;;;1.22;64.25
66524;BME280;53350;52.210;5.160;2022-11-20T01:49:25;101430.53;;;1.19;63.59
66524;BME280;53350;52.210;5.160;2022-11-20T01:51:55;101428.69;;;1.15;63.99
66524;BME280;53350;52.210;5.160;2022-11-20T01:54:25;101437.00;;;1.11;64.52
66524;BME280;53350;52.210;5.160;2022-11-20T01:56:57;101434.41;;;1.09;64.34
66524;BME280;53350;52.210;5.160;2022-11-20T01:59:26;101433.47;;;1.07;63.77
66524;BME280;53350;52.210;5.160;2022-11-20T02:01:54;101427.53;;;1.07;64.28
66524;BME280;53350;52.210;5.160;2022-11-20T02:04:23;101421.59;;;1.06;64.16
66524;BME280;53350;52.210;5.160;2022-11-20T02:06:54;101430.19;;;1.10;64.50
66524;BME280;53350;52.210;5.160;2022-11-20T02:09:23;101430.13;;;1.08;64.07
66524;BME280;53350;52.210;5.160;2022-11-20T02:11:49;101423.09;;;1.01;63.68
66524;BME280;53350;52.210;5.160;2022-11-20T02:14:16;101422.88;;;0.95;64.54
66524;BME280;53350;52.210;5.160;2022-11-20T02:16:45;101423.69;;;0.94;64.38
66524;BME280;53350;52.210;5.160;2022-11-20T02:19:19;101412.75;;;0.95;64.65
66524;BME280;53350;52.210;5.160;2022-11-20T02:21:56;101410.31;;;0.98;64.54
66524;BME280;53350;52.210;5.160;2022-11-20T02:24:27;101407.81;;;0.99;64.63
66524;BME280;53350;52.210;5.160;2022-11-20T02:26:56;101408.69;;;1.00;64.70
66524;BME280;53350;52.210;5.160;2022-11-20T02:29:26;101401.78;;;0.96;64.20
66524;BME280;53350;52.210;5.160;2022-11-20T02:31:55;101402.69;;;0.98;64.48
66524;BME280;53350;52.210;5.160;2022-11-20T02:34:22;101404.44;;;0.99;64.29
66524;BME280;53350;52.210;5.160;2022-11-20T02:36:50;101406.88;;;0.96;64.58
66524;BME280;53350;52.210;5.160;2022-11-20T02:39:19;101398.25;;;0.92;64.21
66524;BME280;53350;52.210;5.160;2022-11-20T02:41:47;101398.09;;;0.88;64.38
66524;BME280;53350;52.210;5.160;2022-11-20T02:44:14;101397.00;;;0.81;64.66
66524;BME280;53350;52.210;5.160;2022-11-20T02:46:40;101397.00;;;0.81;64.17
66524;BME280;53350;52.210;5.160;2022-11-20T02:49:07;101396.78;;;0.75;64.59
66524;BME280;53350;52.210;5.160;2022-11-20T02:51:33;101405.97;;;0.71;64.54
66524;BME280;53350;52.210;5.160;2022-11-20T02:54:00;101399.97;;;0.69;64.08
66524;BME280;53350;52.210;5.160;2022-11-20T02:56:26;101402.50;;;0.69;64.01
66524;BME280;53350;52.210;5.160;2022-11-20T02:58:54;101400.75;;;0.68;64.15
66524;BME280;53350;52.210;5.160;2022-11-20T03:01:21;101392.34;;;0.69;64.30
66524;BME280;53350;52.210;5.160;2022-11-20T03:03:48;101394.84;;;0.67;64.50
66524;BME280;53350;52.210;5.160;2022-11-20T03:06:15;101392.25;;;0.66;63.92
66524;BME280;53350;52.210;5.160;2022-11-20T03:08:42;101387.97;;;0.65;63.97
66524;BME280;53350;52.210;5.160;2022-11-20T03:11:08;101382.84;;;0.63;63.58
66524;BME280;53350;52.210;5.160;2022-11-20T03:13:35;101386.91;;;0.58;64.32
66524;BME280;53350;52.210;5.160;2022-11-20T03:16:08;101384.16;;;0.54;63.89
66524;BME280;53350;52.210;5.160;2022-11-20T03:18:35;101381.63;;;0.54;64.36
66524;BME280;53350;52.210;5.160;2022-11-20T03:21:01;101372.28;;;0.51;64.43
66524;BME280;53350;52.210;5.160;2022-11-20T03:23:29;101377.28;;;0.49;63.92
66524;BME280;53350;52.210;5.160;2022-11-20T03:26:07;101373.88;;;0.49;64.18
66524;BME280;53350;52.210;5.160;2022-11-20T03:28:34;101366.25;;;0.49;63.96
66524;BME280;53350;52.210;5.160;2022-11-20T03:31:07;101367.78;;;0.44;63.69
66524;BME280;53350;52.210;5.160;2022-11-20T03:33:33;101366.91;;;0.43;63.76
66524;BME280;53350;52.210;5.160;2022-11-20T03:36:01;101369.38;;;0.42;63.76
66524;BME280;53350;52.210;5.160;2022-11-20T03:38:28;101365.13;;;0.41;63.86
66524;BME280;53350;52.210;5.160;2022-11-20T03:40:58;101376.06;;;0.40;63.72
66524;BME280;53350;52.210;5.160;2022-11-20T03:43:24;101364.13;;;0.37;63.54
66524;BME280;53350;52.210;5.160;2022-11-20T03:45:51;101363.22;;;0.35;63.96
66524;BME280;53350;52.210;5.160;2022-11-20T03:48:19;101359.75;;;0.33;63.88
66524;BME280;53350;52.210;5.160;2022-11-20T03:50:45;101356.19;;;0.28;63.64
66524;BME280;53350;52.210;5.160;2022-11-20T03:53:12;101362.69;;;0.21;63.42
66524;BME280;53350;52.210;5.160;2022-11-20T03:55:39;101366.63;;;0.14;63.11
66524;BME280;53350;52.210;5.160;2022-11-20T03:58:05;101356.41;;;0.11;63.67
66524;BME280;53350;52.210;5.160;2022-11-20T04:00:32;101358.88;;;0.10;63.98
66524;BME280;53350;52.210;5.160;2022-11-20T04:02:58;101350.41;;;0.09;64.17
66524;BME280;53350;52.210;5.160;2022-11-20T04:05:26;101351.28;;;0.10;63.52
66524;BME280;53350;52.210;5.160;2022-11-20T04:07:53;101344.41;;;0.07;63.93
66524;BME280;53350;52.210;5.160;2022-11-20T04:10:19;101342.66;;;0.05;63.36
66524;BME280;53350;52.210;5.160;2022-11-20T04:12:46;101336.47;;;-0.02;62.89
66524;BME280;53350;52.210;5.160;2022-11-20T04:15:12;101338.78;;;-0.08;63.31
66524;BME280;53350;52.210;5.160;2022-11-20T04:17:39;101322.34;;;-0.18;63.59
66524;BME280;53350;52.210;5.160;2022-11-20T04:20:06;101323.47;;;-0.11;63.44
66524;BME280;53350;52.210;5.160;2022-11-20T04:22:34;101332.81;;;-0.09;64.71
66524;BME280;53350;52.210;5.160;2022-11-20T04:25:01;101334.56;;;-0.08;63.72
66524;BME280;53350;52.210;5.160;2022-11-20T04:27:27;101333.72;;;-0.08;63.72
66524;BME280;53350;52.210;5.160;2022-11-20T04:29:54;101326.13;;;-0.08;63.97
66524;BME280;53350;52.210;5.160;2022-11-20T04:32:20;101325.31;;;-0.07;64.13
66524;BME280;53350;52.210;5.160;2022-11-20T04:34:47;101331.13;;;-0.10;64.15
66524;BME280;53350;52.210;5.160;2022-11-20T04:37:13;101326.72;;;-0.14;63.80
66524;BME280;53350;52.210;5.160;2022-11-20T04:39:41;101322.34;;;-0.18;63.40
66524;BME280;53350;52.210;5.160;2022-11-20T04:42:08;101318.69;;;-0.25;63.89
66524;BME280;53350;52.210;5.160;2022-11-20T04:44:52;101326.28;;;-0.25;63.62
66524;BME280;53350;52.210;5.160;2022-11-20T04:47:18;101332.28;;;-0.23;64.20
66524;BME280;53350;52.210;5.160;2022-11-20T04:49:45;101333.16;;;-0.22;63.99
66524;BME280;53350;52.210;5.160;2022-11-20T04:52:11;101333.16;;;-0.22;63.76
66524;BME280;53350;52.210;5.160;2022-11-20T04:54:37;101330.56;;;-0.24;64.30
66524;BME280;53350;52.210;5.160;2022-11-20T04:57:05;101317.91;;;-0.24;63.50
66524;BME280;53350;52.210;5.160;2022-11-20T04:59:32;101317.97;;;-0.22;64.65
66524;BME280;53350;52.210;5.160;2022-11-20T05:01:58;101322.13;;;-0.24;63.91
66524;BME280;53350;52.210;5.160;2022-11-20T05:04:25;101318.63;;;-0.26;64.16
66524;BME280;53350;52.210;5.160;2022-11-20T05:06:51;101314.47;;;-0.26;64.44
66524;BME280;53350;52.210;5.160;2022-11-20T05:09:17;101306.13;;;-0.23;64.85
66524;BME280;53350;52.210;5.160;2022-11-20T05:11:44;101308.72;;;-0.22;64.41
66524;BME280;53350;52.210;5.160;2022-11-20T05:14:12;101291.78;;;-0.23;64.56
66524;BME280;53350;52.210;5.160;2022-11-20T05:16:38;101286.66;;;-0.24;64.14
66524;BME280;53350;52.210;5.160;2022-11-20T05:19:04;101289.19;;;-0.24;64.48
66524;BME280;53350;52.210;5.160;2022-11-20T05:21:31;101284.88;;;-0.27;63.75
66524;BME280;53350;52.210;5.160;2022-11-20T05:23:57;101288.16;;;-0.29;64.74
66524;BME280;53350;52.210;5.160;2022-11-20T05:26:24;101281.38;;;-0.30;64.26
66524;BME280;53350;52.210;5.160;2022-11-20T05:28:51;101285.56;;;-0.31;64.74
66524;BME280;53350;52.210;5.160;2022-11-20T05:31:21;101279.63;;;-0.31;64.30
66524;BME280;53350;52.210;5.160;2022-11-20T05:33:48;101287.28;;;-0.30;63.94
66524;BME280;53350;52.210;5.160;2022-11-20T05:36:15;101290.69;;;-0.29;64.13
66524;BME280;53350;52.210;5.160;2022-11-20T05:38:42;101293.88;;;-0.33;63.57
66524;BME280;53350;52.210;5.160;2022-11-20T05:41:11;101291.91;;;-0.41;64.09
66524;BME280;53350;52.210;5.160;2022-11-20T05:43:39;101293.53;;;-0.43;63.65
66524;BME280;53350;52.210;5.160;2022-11-20T05:46:06;101291.00;;;-0.43;63.97
66524;BME280;53350;52.210;5.160;2022-11-20T05:48:35;101299.44;;;-0.42;63.78
66524;BME280;53350;52.210;5.160;2022-11-20T05:51:02;101295.16;;;-0.45;63.86
66524;BME280;53350;52.210;5.160;2022-11-20T05:53:29;101301.81;;;-0.47;64.49
66524;BME280;53350;52.210;5.160;2022-11-20T05:55:57;101309.34;;;-0.48;64.09
66524;BME280;53350;52.210;5.160;2022-11-20T05:58:24;101303.47;;;-0.47;64.26
66524;BME280;53350;52.210;5.160;2022-11-20T06:00:50;101311.13;;;-0.46;64.09
66524;BME280;53350;52.210;5.160;2022-11-20T06:03:17;101307.66;;;-0.48;64.11
66524;BME280;53350;52.210;5.160;2022-11-20T06:05:44;101316.19;;;-0.46;63.53
66524;BME280;53350;52.210;5.160;2022-11-20T06:08:11;101323.78;;;-0.46;63.55
66524;BME280;53350;52.210;5.160;2022-11-20T06:10:37;101307.66;;;-0.48;64.26
66524;BME280;53350;52.210;5.160;2022-11-20T06:13:04;101306.84;;;-0.47;64.24
66524;BME280;53350;52.210;5.160;2022-11-20T06:15:30;101307.81;;;-0.45;64.08
66524;BME280;53350;52.210;5.160;2022-11-20T06:17:57;101309.56;;;-0.42;64.18
66524;BME280;53350;52.210;5.160;2022-11-20T06:20:24;101307.09;;;-0.41;63.62
66524;BME280;53350;52.210;5.160;2022-11-20T06:22:51;101303.72;;;-0.41;63.95
66524;BME280;53350;52.210;5.160;2022-11-20T06:25:18;101303.72;;;-0.41;63.63
66524;BME280;53350;52.210;5.160;2022-11-20T06:27:44;101306.06;;;-0.46;63.92
66524;BME280;53350;52.210;5.160;2022-11-20T06:30:12;101311.75;;;-0.51;64.46
66524;BME280;53350;52.210;5.160;2022-11-20T06:32:38;101311.69;;;-0.53;63.86
66524;BME280;53350;52.210;5.160;2022-11-20T06:35:05;101303.31;;;-0.52;64.48
66524;BME280;53350;52.210;5.160;2022-11-20T06:37:32;101306.81;;;-0.48;64.45
66524;BME280;53350;52.210;5.160;2022-11-20T06:39:59;101305.22;;;-0.46;64.15
66524;BME280;53350;52.210;5.160;2022-11-20T06:42:26;101307.88;;;-0.43;64.31
66524;BME280;53350;52.210;5.160;2022-11-20T06:44:52;101307.16;;;-0.39;64.99
66524;BME280;53350;52.210;5.160;2022-11-20T06:47:19;101307.31;;;-0.36;64.65
66524;BME280;53350;52.210;5.160;2022-11-20T06:49:45;101302.38;;;-0.33;64.22
66524;BME280;53350;52.210;5.160;2022-11-20T06:52:12;101298.88;;;-0.35;64.72
66524;BME280;53350;52.210;5.160;2022-11-20T06:54:38;101299.66;;;-0.38;64.17
66524;BME280;53350;52.210;5.160;2022-11-20T06:57:06;101296.97;;;-0.41;65.12
66524;BME280;53350;52.210;5.160;2022-11-20T06:59:32;101292.84;;;-0.39;64.88
66524;BME280;53350;52.210;5.160;2022-11-20T07:01:59;101289.53;;;-0.38;64.88
66524;BME280;53350;52.210;5.160;2022-11-20T07:04:25;101289.59;;;-0.36;64.54
66524;BME280;53350;52.210;5.160;2022-11-20T07:06:51;101291.25;;;-0.37;65.29
66524;BME280;53350;52.210;5.160;2022-11-20T07:09:18;101291.19;;;-0.38;64.41
66524;BME280;53350;52.210;5.160;2022-11-20T07:11:44;101293.53;;;-0.43;64.63
66524;BME280;53350;52.210;5.160;2022-11-20T07:14:12;101289.31;;;-0.42;65.18
66524;BME280;53350;52.210;5.160;2022-11-20T07:16:39;101272.59;;;-0.39;65.53
66524;BME280;53350;52.210;5.160;2022-11-20T07:19:05;101269.34;;;-0.36;65.31
66524;BME280;53350;52.210;5.160;2022-11-20T07:21:32;101273.56;;;-0.35;65.02
66524;BME280;53350;52.210;5.160;2022-11-20T07:23:58;101272.00;;;-0.33;65.63
66524;BME280;53350;52.210;5.160;2022-11-20T07:26:25;101276.38;;;-0.29;65.67
66524;BME280;53350;52.210;5.160;2022-11-20T07:28:51;101262.22;;;-0.24;65.83
66524;BME280;53350;52.210;5.160;2022-11-20T07:31:19;101267.50;;;-0.18;65.82
66524;BME280;53350;52.210;5.160;2022-11-20T07:33:45;101266.03;;;-0.12;65.78
66524;BME280;53350;52.210;5.160;2022-11-20T07:36:12;101266.19;;;-0.08;65.31
66524;BME280;53350;52.210;5.160;2022-11-20T07:38:38;101267.25;;;-0.03;66.33
66524;BME280;53350;52.210;5.160;2022-11-20T07:41:05;101271.63;;;0.02;65.67
66524;BME280;53350;52.210;5.160;2022-11-20T07:43:31;101275.91;;;0.04;65.44
66524;BME280;53350;52.210;5.160;2022-11-20T07:45:58;101270.09;;;0.07;66.29
66524;BME280;53350;52.210;5.160;2022-11-20T07:48:26;101276.97;;;0.09;66.24
66524;BME280;53350;52.210;5.160;2022-11-20T07:50:53;101278.88;;;0.15;66.57
66524;BME280;53350;52.210;5.160;2022-11-20T07:53:20;101273.22;;;0.22;65.94
66524;BME280;53350;52.210;5.160;2022-11-20T07:55:47;101270.00;;;0.26;66.64
66524;BME280;53350;52.210;5.160;2022-11-20T07:58:14;101273.66;;;0.34;66.67
66524;BME280;53350;52.210;5.160;2022-11-20T08:00:40;101273.75;;;0.38;66.86
66524;BME280;53350;52.210;5.160;2022-11-20T08:03:07;101263.78;;;0.41;66.94
66524;BME280;53350;52.210;5.160;2022-11-20T08:05:35;101266.31;;;0.41;66.21
66524;BME280;53350;52.210;5.160;2022-11-20T08:08:02;101259.59;;;0.43;66.45
66524;BME280;53350;52.210;5.160;2022-11-20T08:10:29;101257.22;;;0.47;66.65
66524;BME280;53350;52.210;5.160;2022-11-20T08:12:55;101258.31;;;0.54;67.17
66524;BME280;53350;52.210;5.160;2022-11-20T08:15:40;101244.25;;;0.62;67.62
66524;BME280;53350;52.210;5.160;2022-11-20T08:18:08;101246.06;;;0.66;67.30
66524;BME280;53350;52.210;5.160;2022-11-20T08:20:37;101237.75;;;0.71;67.33
66524;BME280;53350;52.210;5.160;2022-11-20T08:23:04;101243.84;;;0.76;67.20
66524;BME280;53350;52.210;5.160;2022-11-20T08:25:32;101248.88;;;0.74;66.79
66524;BME280;53350;52.210;5.160;2022-11-20T08:28:00;101244.59;;;0.73;66.96
66524;BME280;53350;52.210;5.160;2022-11-20T08:30:27;101251.22;;;0.69;67.02
66524;BME280;53350;52.210;5.160;2022-11-20T08:32:54;101257.19;;;0.70;67.36
66524;BME280;53350;52.210;5.160;2022-11-20T08:35:26;101253.13;;;0.75;67.03
66524;BME280;53350;52.210;5.160;2022-11-20T08:37:54;101256.78;;;0.83;67.34
66524;BME280;53350;52.210;5.160;2022-11-20T08:40:20;101249.38;;;0.90;67.52
66524;BME280;53350;52.210;5.160;2022-11-20T08:42:47;101244.59;;;0.97;67.31
66524;BME280;53350;52.210;5.160;2022-11-20T08:45:14;101237.97;;;1.02;66.47
66524;BME280;53350;52.210;5.160;2022-11-20T08:47:41;101237.16;;;1.03;66.73
66524;BME280;53350;52.210;5.160;2022-11-20T08:50:08;101246.50;;;1.04;67.48
66524;BME280;53350;52.210;5.160;2022-11-20T08:52:34;101246.41;;;1.01;67.72
66524;BME280;53350;52.210;5.160;2022-11-20T08:55:03;101254.09;;;1.03;67.13
66524;BME280;53350;52.210;5.160;2022-11-20T08:57:31;101252.44;;;1.05;66.97
66524;BME280;53350;52.210;5.160;2022-11-20T08:59:57;101258.50;;;1.09;67.42
66524;BME280;53350;52.210;5.160;2022-11-20T09:02:24;101261.28;;;1.16;67.75
66524;BME280;53350;52.210;5.160;2022-11-20T09:04:50;101258.88;;;1.21;67.70
66524;BME280;53350;52.210;5.160;2022-11-20T09:07:18;101259.03;;;1.26;67.78
66524;BME280;53350;52.210;5.160;2022-11-20T09:09:45;101240.66;;;1.33;67.63
66524;BME280;53350;52.210;5.160;2022-11-20T09:12:12;101238.19;;;1.36;67.60
66524;BME280;53350;52.210;5.160;2022-11-20T09:14:39;101234.09;;;1.39;67.67
66524;BME280;53350;52.210;5.160;2022-11-20T09:17:05;101221.50;;;1.43;67.57
66524;BME280;53350;52.210;5.160;2022-11-20T09:19:32;101217.38;;;1.46;67.28
66524;BME280;53350;52.210;5.160;2022-11-20T09:21:59;101221.78;;;1.52;68.10
66524;BME280;53350;52.210;5.160;2022-11-20T09:24:26;101217.53;;;1.51;67.61
66524;BME280;53350;52.210;5.160;2022-11-20T09:26:53;101215.97;;;1.56;67.53
66524;BME280;53350;52.210;5.160;2022-11-20T09:29:20;101210.22;;;1.62;67.70
66524;BME280;53350;52.210;5.160;2022-11-20T09:31:47;101205.28;;;1.66;67.62
66524;BME280;53350;52.210;5.160;2022-11-20T09:34:13;101191.06;;;1.71;68.21
66524;BME280;53350;52.210;5.160;2022-11-20T09:36:40;101193.00;;;1.80;67.76
66524;BME280;53350;52.210;5.160;2022-11-20T09:39:06;101184.63;;;1.83;67.85
66524;BME280;53350;52.210;5.160;2022-11-20T09:42:04;101200.59;;;1.79;68.31
66524;BME280;53350;52.210;5.160;2022-11-20T09:44:48;101198.13;;;1.82;67.83
66524;BME280;53350;52.210;5.160;2022-11-20T09:47:22;101185.66;;;1.89;68.45
66524;BME280;53350;52.210;5.160;2022-11-20T09:50:01;101186.69;;;1.96;67.98
66524;BME280;53350;52.210;5.160;2022-11-20T09:52:37;101185.19;;;2.03;68.25
66524;BME280;53350;52.210;5.160;2022-11-20T09:55:10;101173.47;;;2.08;67.90
66524;BME280;53350;52.210;5.160;2022-11-20T09:57:41;101171.00;;;2.11;68.64
66524;BME280;53350;52.210;5.160;2022-11-20T10:00:12;101167.69;;;2.14;68.67
66524;BME280;53350;52.210;5.160;2022-11-20T10:02:42;101162.84;;;2.23;68.18
66524;BME280;53350;52.210;5.160;2022-11-20T10:05:18;101161.31;;;2.28;68.04
66524;BME280;53350;52.210;5.160;2022-11-20T10:07:48;101170.88;;;2.37;68.00
66524;BME280;53350;52.210;5.160;2022-11-20T10:10:29;101155.88;;;2.48;68.28
66524;BME280;53350;52.210;5.160;2022-11-20T10:13:24;101153.56;;;2.55;68.22
66524;BME280;53350;52.210;5.160;2022-11-20T10:16:14;101155.34;;;2.59;68.29
66524;BME280;53350;52.210;5.160;2022-11-20T10:18:54;101144.53;;;2.67;68.33
66524;BME280;53350;52.210;5.160;2022-11-20T10:21:30;101140.47;;;2.75;67.96
66524;BME280;53350;52.210;5.160;2022-11-20T10:24:34;101127.00;;;2.79;68.12
66524;BME280;53350;52.210;5.160;2022-11-20T10:27:09;101124.56;;;2.84;67.88
66524;BME280;53350;52.210;5.160;2022-11-20T10:29:45;101122.25;;;2.93;67.80
66524;BME280;53350;52.210;5.160;2022-11-20T10:32:18;101116.63;;;3.06;68.55
66524;BME280;53350;52.210;5.160;2022-11-20T10:34:50;101101.63;;;3.19;67.94
66524;BME280;53350;52.210;5.160;2022-11-20T10:37:19;101090.78;;;3.27;67.33
66524;BME280;53350;52.210;5.160;2022-11-20T10:39:53;101094.09;;;3.23;67.64
66524;BME280;53350;52.210;5.160;2022-11-20T10:42:28;101092.44;;;3.25;66.93
66524;BME280;53350;52.210;5.160;2022-11-20T10:45:03;101083.88;;;3.22;66.96
66524;BME280;53350;52.210;5.160;2022-11-20T10:47:37;101075.41;;;3.23;66.96
66524;BME280;53350;52.210;5.160;2022-11-20T10:50:05;101076.34;;;3.26;67.13
66524;BME280;53350;52.210;5.160;2022-11-20T10:52:42;101079.84;;;3.33;67.05
66524;BME280;53350;52.210;5.160;2022-11-20T10:55:24;101074.75;;;3.33;67.44
66524;BME280;53350;52.210;5.160;2022-11-20T10:57:54;101064.72;;;3.39;67.14
66524;BME280;53350;52.210;5.160;2022-11-20T11:00:25;101056.31;;;3.42;66.82
66524;BME280;53350;52.210;5.160;2022-11-20T11:02:54;101048.69;;;3.43;67.02
66524;BME280;53350;52.210;5.160;2022-11-20T11:05:32;101034.22;;;3.41;66.97
66524;BME280;53350;52.210;5.160;2022-11-20T11:08:00;101042.94;;;3.52;67.00
66524;BME280;53350;52.210;5.160;2022-11-20T11:10:33;101037.81;;;3.51;66.62
66524;BME280;53350;52.210;5.160;2022-11-20T11:13:02;101038.69;;;3.54;66.91
66524;BME280;53350;52.210;5.160;2022-11-20T11:15:30;101033.63;;;3.56;67.07
66524;BME280;53350;52.210;5.160;2022-11-20T11:18:04;101031.19;;;3.62;67.09
66524;BME280;53350;52.210;5.160;2022-11-20T11:20:31;101020.22;;;3.64;67.25
66524;BME280;53350;52.210;5.160;2022-11-20T11:22:59;101010.94;;;3.67;66.94
66524;BME280;53350;52.210;5.160;2022-11-20T11:25:28;101005.00;;;3.68;66.88
66524;BME280;53350;52.210;5.160;2022-11-20T11:27:57;101007.56;;;3.69;66.90
66524;BME280;53350;52.210;5.160;2022-11-20T11:30:26;101000.78;;;3.68;67.06
66524;BME280;53350;52.210;5.160;2022-11-20T11:33:04;100998.25;;;3.70;67.40
66524;BME280;53350;52.210;5.160;2022-11-20T11:35:31;100984.72;;;3.72;67.37
66524;BME280;53350;52.210;5.160;2022-11-20T11:38:03;100984.75;;;3.74;67.46
66524;BME280;53350;52.210;5.160;2022-11-20T11:40:32;100978.81;;;3.75;67.54
66524;BME280;53350;52.210;5.160;2022-11-20T11:43:01;100978.78;;;3.73;67.97
66524;BME280;53350;52.210;5.160;2022-11-20T11:45:28;100973.69;;;3.73;68.51
66524;BME280;53350;52.210;5.160;2022-11-20T11:47:56;100977.94;;;3.74;68.29
66524;BME280;53350;52.210;5.160;2022-11-20T11:50:26;100970.34;;;3.76;68.41
66524;BME280;53350;52.210;5.160;2022-11-20T11:53:12;100962.69;;;3.76;69.05
66524;BME280;53350;52.210;5.160;2022-11-20T11:55:42;100960.13;;;3.74;69.23
66524;BME280;53350;52.210;5.160;2022-11-20T11:58:16;100957.63;;;3.77;69.60
66524;BME280;53350;52.210;5.160;2022-11-20T12:00:51;100947.41;;;3.76;69.93
66524;BME280;53350;52.210;5.160;2022-11-20T12:03:24;100956.84;;;3.81;69.97
66524;BME280;53350;52.210;5.160;2022-11-20T12:05:57;100951.81;;;3.85;70.42
66524;BME280;53350;52.210;5.160;2022-11-20T12:08:27;100939.94;;;3.87;70.48
66524;BME280;53350;52.210;5.160;2022-11-20T12:11:00;100941.63;;;3.86;71.07
66524;BME280;53350;52.210;5.160;2022-11-20T12:13:48;100937.34;;;3.85;71.18
66524;BME280;53350;52.210;5.160;2022-11-20T12:16:19;100938.22;;;3.86;71.29
66524;BME280;53350;52.210;5.160;2022-11-20T12:18:49;100931.47;;;3.88;71.52
66524;BME280;53350;52.210;5.160;2022-11-20T12:21:26;100931.53;;;3.92;71.65
66524;BME280;53350;52.210;5.160;2022-11-20T12:24:14;100922.22;;;3.93;72.03
66524;BME280;53350;52.210;5.160;2022-11-20T12:26:57;100909.44;;;3.90;72.27
66524;BME280;53350;52.210;5.160;2022-11-20T12:29:36;100907.66;;;3.86;72.73
66524;BME280;53350;52.210;5.160;2022-11-20T12:35:18;100899.13;;;3.83;73.19
66524;BME280;53350;52.210;5.160;2022-11-20T12:38:02;100902.53;;;3.82;73.02
66524;BME280;53350;52.210;5.160;2022-11-20T12:40:38;100892.34;;;3.84;73.74
66524;BME280;53350;52.210;5.160;2022-11-20T12:43:12;100883.00;;;3.85;73.58
66524;BME280;53350;52.210;5.160;2022-11-20T12:46:17;100878.78;;;3.87;73.94
66524;BME280;53350;52.210;5.160;2022-11-20T12:49:12;100870.31;;;3.89;73.84
66524;BME280;53350;52.210;5.160;2022-11-20T12:51:52;100853.34;;;3.88;74.07
66524;BME280;53350;52.210;5.160;2022-11-20T12:54:46;100843.19;;;3.91;74.46
66524;BME280;53350;52.210;5.160;2022-11-20T12:57:24;100833.84;;;3.92;74.58
66524;BME280;53350;52.210;5.160;2022-11-20T13:00:07;100828.78;;;3.93;74.67
66524;BME280;53350;52.210;5.160;2022-11-20T13:05:24;100811.78;;;3.94;75.28
66524;BME280;53350;52.210;5.160;2022-11-20T13:07:56;100818.59;;;3.93;75.53
66524;BME280;53350;52.210;5.160;2022-11-20T13:10:31;100832.16;;;3.94;75.50
66524;BME280;53350;52.210;5.160;2022-11-20T13:13:03;100833.09;;;3.97;75.84
66524;BME280;53350;52.210;5.160;2022-11-20T13:15:44;100832.28;;;4.00;75.89